sensor_id;sensor_type;location;lat;lon;timestamp;P1;durP1;ratioP1;P2;durP2;ratioP2
52438;SDS011;38359;53.150;6.504;2023-03-01T00:03:12;50.08;;;22.73;;
52438;SDS011;38359;53.150;6.504;2023-03-01T00:13:39;60.50;;;28.23;;
52438;SDS011;38359;53.150;6.504;2023-03-01T00:24:06;63.40;;;30.17;;
52438;SDS011;38359;53.150;6.504;2023-03-01T00:34:32;51.88;;;26.17;;
52438;SDS011;38359;53.150;6.504;2023-03-01T00:44:58;40.35;;;21.23;;
52438;SDS011;38359;53.150;6.504;2023-03-01T00:55:23;35.47;;;17.88;;
52438;SDS011;38359;53.150;6.504;2023-03-01T01:05:50;37.97;;;18.90;;
52438;SDS011;38359;53.150;6.504;2023-03-01T01:16:17;499.40;;;35.47;;
52438;SDS011;38359;53.150;6.504;2023-03-01T01:26:45;90.30;;;24.67;;
52438;SDS011;38359;53.150;6.504;2023-03-01T01:37:11;671.08;;;45.83;;
52438;SDS011;38359;53.150;6.504;2023-03-01T01:47:37;295.75;;;23.05;;
52438;SDS011;38359;53.150;6.504;2023-03-01T01:58:04;569.97;;;37.13;;
52438;SDS011;38359;53.150;6.504;2023-03-01T02:08:33;417.02;;;28.17;;
52438;SDS011;38359;53.150;6.504;2023-03-01T02:19:03;473.20;;;33.22;;
52438;SDS011;38359;53.150;6.504;2023-03-01T02:29:30;301.00;;;29.75;;
52438;SDS011;38359;53.150;6.504;2023-03-01T02:39:58;383.40;;;30.65;;
52438;SDS011;38359;53.150;6.504;2023-03-01T03:01:14;138.95;;;21.05;;
52438;SDS011;38359;53.150;6.504;2023-03-01T03:11:40;295.83;;;20.60;;
52438;SDS011;38359;53.150;6.504;2023-03-01T03:22:07;41.30;;;18.52;;
52438;SDS011;38359;53.150;6.504;2023-03-01T03:32:37;36.15;;;18.60;;
52438;SDS011;38359;53.150;6.504;2023-03-01T03:43:18;34.37;;;18.20;;
52438;SDS011;38359;53.150;6.504;2023-03-01T03:53:48;36.70;;;19.45;;
52438;SDS011;38359;53.150;6.504;2023-03-01T04:04:13;41.85;;;21.88;;
52438;SDS011;38359;53.150;6.504;2023-03-01T04:14:42;47.10;;;22.85;;
52438;SDS011;38359;53.150;6.504;2023-03-01T04:25:08;40.25;;;21.05;;
52438;SDS011;38359;53.150;6.504;2023-03-01T04:35:34;40.30;;;20.52;;
52438;SDS011;38359;53.150;6.504;2023-03-01T04:46:02;23.88;;;12.52;;
52438;SDS011;38359;53.150;6.504;2023-03-01T04:56:31;94.28;;;14.80;;
52438;SDS011;38359;53.150;6.504;2023-03-01T05:06:56;373.48;;;24.35;;
52438;SDS011;38359;53.150;6.504;2023-03-01T05:17:23;189.77;;;19.27;;
52438;SDS011;38359;53.150;6.504;2023-03-01T05:27:49;325.75;;;26.05;;
52438;SDS011;38359;53.150;6.504;2023-03-01T05:38:16;205.68;;;19.60;;
52438;SDS011;38359;53.150;6.504;2023-03-01T05:48:42;241.68;;;22.52;;
52438;SDS011;38359;53.150;6.504;2023-03-01T05:59:08;36.80;;;19.17;;
52438;SDS011;38359;53.150;6.504;2023-03-01T06:09:36;27.52;;;15.23;;
52438;SDS011;38359;53.150;6.504;2023-03-01T06:20:01;19.92;;;12.82;;
52438;SDS011;38359;53.150;6.504;2023-03-01T06:30:33;21.10;;;12.48;;
52438;SDS011;38359;53.150;6.504;2023-03-01T06:41:00;21.67;;;12.57;;
52438;SDS011;38359;53.150;6.504;2023-03-01T06:51:26;18.83;;;12.05;;
52438;SDS011;38359;53.150;6.504;2023-03-01T07:01:52;26.27;;;13.60;;
52438;SDS011;38359;53.150;6.504;2023-03-01T07:12:17;24.10;;;14.45;;
52438;SDS011;38359;53.150;6.504;2023-03-01T07:22:43;23.88;;;14.27;;
52438;SDS011;38359;53.150;6.504;2023-03-01T07:33:09;23.73;;;13.50;;
52438;SDS011;38359;53.150;6.504;2023-03-01T07:43:35;22.58;;;13.55;;
52438;SDS011;38359;53.150;6.504;2023-03-01T07:54:00;24.33;;;13.65;;
52438;SDS011;38359;53.150;6.504;2023-03-01T08:04:26;27.20;;;16.13;;
52438;SDS011;38359;53.150;6.504;2023-03-01T08:14:52;25.50;;;16.30;;
52438;SDS011;38359;53.150;6.504;2023-03-01T08:25:19;30.65;;;18.17;;
52438;SDS011;38359;53.150;6.504;2023-03-01T08:35:44;38.28;;;21.35;;
52438;SDS011;38359;53.150;6.504;2023-03-01T08:46:10;59.97;;;31.55;;
52438;SDS011;38359;53.150;6.504;2023-03-01T08:56:37;78.60;;;39.55;;
52438;SDS011;38359;53.150;6.504;2023-03-01T09:07:03;71.25;;;36.95;;
52438;SDS011;38359;53.150;6.504;2023-03-01T09:17:30;79.78;;;40.38;;
52438;SDS011;38359;53.150;6.504;2023-03-01T09:27:56;76.25;;;40.70;;
52438;SDS011;38359;53.150;6.504;2023-03-01T09:38:21;72.25;;;39.53;;
52438;SDS011;38359;53.150;6.504;2023-03-01T09:48:51;80.55;;;43.47;;
52438;SDS011;38359;53.150;6.504;2023-03-01T09:59:28;69.53;;;37.30;;
52438;SDS011;38359;53.150;6.504;2023-03-01T10:10:15;50.60;;;29.40;;
52438;SDS011;38359;53.150;6.504;2023-03-01T10:20:56;43.88;;;23.67;;
52438;SDS011;38359;53.150;6.504;2023-03-01T10:31:25;38.13;;;20.42;;
52438;SDS011;38359;53.150;6.504;2023-03-01T10:42:03;36.22;;;19.90;;
52438;SDS011;38359;53.150;6.504;2023-03-01T10:52:40;37.20;;;18.27;;
52438;SDS011;38359;53.150;6.504;2023-03-01T11:03:11;38.28;;;21.17;;
52438;SDS011;38359;53.150;6.504;2023-03-01T11:13:52;31.42;;;18.08;;
52438;SDS011;38359;53.150;6.504;2023-03-01T11:24:31;35.20;;;20.40;;
52438;SDS011;38359;53.150;6.504;2023-03-01T11:35:24;35.70;;;20.60;;
52438;SDS011;38359;53.150;6.504;2023-03-01T11:57:09;32.97;;;18.70;;
52438;SDS011;38359;53.150;6.504;2023-03-01T12:08:05;29.65;;;17.48;;
52438;SDS011;38359;53.150;6.504;2023-03-01T12:18:45;32.20;;;18.23;;
52438;SDS011;38359;53.150;6.504;2023-03-01T12:29:53;26.23;;;16.75;;
52438;SDS011;38359;53.150;6.504;2023-03-01T12:41:12;28.45;;;17.13;;
52438;SDS011;38359;53.150;6.504;2023-03-01T13:03:17;23.45;;;13.85;;
52438;SDS011;38359;53.150;6.504;2023-03-01T13:13:50;27.83;;;14.68;;
52438;SDS011;38359;53.150;6.504;2023-03-01T13:24:26;23.00;;;14.35;;
52438;SDS011;38359;53.150;6.504;2023-03-01T13:35:02;24.92;;;14.52;;
52438;SDS011;38359;53.150;6.504;2023-03-01T13:45:52;25.67;;;14.68;;
52438;SDS011;38359;53.150;6.504;2023-03-01T13:56:27;18.88;;;13.63;;
52438;SDS011;38359;53.150;6.504;2023-03-01T14:07:19;19.40;;;13.18;;
52438;SDS011;38359;53.150;6.504;2023-03-01T14:17:57;20.15;;;12.27;;
52438;SDS011;38359;53.150;6.504;2023-03-01T14:28:45;20.50;;;13.73;;
52438;SDS011;38359;53.150;6.504;2023-03-01T14:39:22;18.40;;;13.02;;
52438;SDS011;38359;53.150;6.504;2023-03-01T14:49:53;21.17;;;13.05;;
52438;SDS011;38359;53.150;6.504;2023-03-01T15:00:26;21.38;;;15.32;;
52438;SDS011;38359;53.150;6.504;2023-03-01T15:21:48;22.17;;;15.13;;
52438;SDS011;38359;53.150;6.504;2023-03-01T15:32:31;19.35;;;14.23;;
52438;SDS011;38359;53.150;6.504;2023-03-01T15:43:03;19.02;;;13.27;;
52438;SDS011;38359;53.150;6.504;2023-03-01T15:53:30;22.95;;;15.13;;
52438;SDS011;38359;53.150;6.504;2023-03-01T16:03:57;19.95;;;14.77;;
52438;SDS011;38359;53.150;6.504;2023-03-01T16:14:23;26.23;;;16.70;;
52438;SDS011;38359;53.150;6.504;2023-03-01T16:24:51;25.20;;;16.55;;
52438;SDS011;38359;53.150;6.504;2023-03-01T16:35:18;29.60;;;16.60;;
52438;SDS011;38359;53.150;6.504;2023-03-01T16:45:45;25.15;;;16.02;;
52438;SDS011;38359;53.150;6.504;2023-03-01T16:56:11;25.92;;;16.70;;
52438;SDS011;38359;53.150;6.504;2023-03-01T17:06:38;29.73;;;17.05;;
52438;SDS011;38359;53.150;6.504;2023-03-01T17:17:04;27.20;;;16.70;;
52438;SDS011;38359;53.150;6.504;2023-03-01T17:27:30;28.58;;;16.05;;
52438;SDS011;38359;53.150;6.504;2023-03-01T17:38:05;21.77;;;13.70;;
52438;SDS011;38359;53.150;6.504;2023-03-01T17:48:31;22.42;;;13.98;;
52438;SDS011;38359;53.150;6.504;2023-03-01T17:58:57;23.55;;;12.43;;
52438;SDS011;38359;53.150;6.504;2023-03-01T18:09:23;23.40;;;14.68;;
52438;SDS011;38359;53.150;6.504;2023-03-01T18:19:51;27.92;;;15.93;;
52438;SDS011;38359;53.150;6.504;2023-03-01T18:30:17;28.40;;;17.88;;
52438;SDS011;38359;53.150;6.504;2023-03-01T18:40:43;26.75;;;17.45;;
52438;SDS011;38359;53.150;6.504;2023-03-01T18:51:14;31.23;;;20.25;;
52438;SDS011;38359;53.150;6.504;2023-03-01T19:01:43;28.38;;;19.88;;
52438;SDS011;38359;53.150;6.504;2023-03-01T19:12:08;25.40;;;18.08;;
52438;SDS011;38359;53.150;6.504;2023-03-01T19:22:34;27.23;;;18.95;;
52438;SDS011;38359;53.150;6.504;2023-03-01T19:33:00;30.92;;;19.67;;
52438;SDS011;38359;53.150;6.504;2023-03-01T19:43:26;48.58;;;30.08;;
52438;SDS011;38359;53.150;6.504;2023-03-01T19:53:53;40.92;;;25.02;;
52438;SDS011;38359;53.150;6.504;2023-03-01T20:04:19;57.85;;;32.33;;
52438;SDS011;38359;53.150;6.504;2023-03-01T20:14:44;56.28;;;32.38;;
52438;SDS011;38359;53.150;6.504;2023-03-01T20:25:12;49.05;;;27.33;;
52438;SDS011;38359;53.150;6.504;2023-03-01T20:35:42;48.60;;;27.40;;
52438;SDS011;38359;53.150;6.504;2023-03-01T20:46:08;48.45;;;27.02;;
52438;SDS011;38359;53.150;6.504;2023-03-01T20:56:37;39.45;;;25.42;;
52438;SDS011;38359;53.150;6.504;2023-03-01T21:07:02;42.28;;;26.60;;
52438;SDS011;38359;53.150;6.504;2023-03-01T21:17:28;44.40;;;24.90;;
52438;SDS011;38359;53.150;6.504;2023-03-01T21:27:54;45.45;;;26.85;;
52438;SDS011;38359;53.150;6.504;2023-03-01T21:38:20;52.08;;;27.73;;
52438;SDS011;38359;53.150;6.504;2023-03-01T21:48:46;39.88;;;24.52;;
52438;SDS011;38359;53.150;6.504;2023-03-01T21:59:14;38.17;;;21.92;;
52438;SDS011;38359;53.150;6.504;2023-03-01T22:09:43;28.77;;;18.58;;
52438;SDS011;38359;53.150;6.504;2023-03-01T22:20:10;33.40;;;19.58;;
52438;SDS011;38359;53.150;6.504;2023-03-01T22:30:38;34.22;;;19.58;;
52438;SDS011;38359;53.150;6.504;2023-03-01T22:41:04;28.98;;;18.58;;
52438;SDS011;38359;53.150;6.504;2023-03-01T22:51:31;32.55;;;19.65;;
52438;SDS011;38359;53.150;6.504;2023-03-01T23:02:00;33.53;;;20.25;;
52438;SDS011;38359;53.150;6.504;2023-03-01T23:12:27;42.17;;;23.73;;
52438;SDS011;38359;53.150;6.504;2023-03-01T23:22:53;44.75;;;26.33;;
52438;SDS011;38359;53.150;6.504;2023-03-01T23:33:25;45.80;;;26.50;;
52438;SDS011;38359;53.150;6.504;2023-03-01T23:43:54;42.63;;;25.52;;
52438;SDS011;38359;53.150;6.504;2023-03-01T23:54:22;52.58;;;29.92;;
